Time;durP1;ratioP1;P1;durP2;ratioP2;P2;SDS_P1;SDS_P2;PMS_P1;PMS_P2;Temp;Humidity;BMP_temperature;BMP_pressure;BME280_temperature;BME280_humidity;BME280_pressure;Samples;Min_cycle;Max_cycle;Signal;HPM_P1;HPM_P2
2023/06/23 00:00:14;;;;;;;;;;;;;;;15.01;100.00;101858.03;5103066;28;19927;-49
2023/06/23 00:02:42;;;;;;;;;;;;;;;15.00;100.00;101861.47;5101508;28;20279;-48
2023/06/23 00:05:08;;;;;;;;;;;;;;;14.95;100.00;101868.22;5104941;28;20309;-48
2023/06/23 00:07:34;;;;;;;;;;;;;;;14.91;100.00;101855.16;5105881;28;19935;-50
2023/06/23 00:10:00;;;;;;;;;;;;;;;14.86;100.00;101864.50;5100391;28;19920;-50
2023/06/23 00:12:25;;;;;;;;;;;;;;;14.82;100.00;101868.75;5103823;28;20289;-50
2023/06/23 00:14:50;;;;;;;;;;;;;;;14.79;100.00;101881.59;5103247;28;19912;-49
2023/06/23 00:17:15;;;;;;;;;;;;;;;14.75;100.00;101883.25;5102774;28;19928;-50
2023/06/23 00:19:41;;;;;;;;;;;;;;;14.75;100.00;101882.38;5100009;28;19928;-48
2023/06/23 00:22:06;;;;;;;;;;;;;;;14.71;100.00;101881.41;5110668;28;20391;-49
2023/06/23 00:24:32;;;;;;;;;;;;;;;14.70;100.00;101881.38;5108912;28;19915;-51
2023/06/23 00:26:57;;;;;;;;;;;;;;;14.67;100.00;101887.31;5108091;28;19912;-49
2023/06/23 00:29:22;;;;;;;;;;;;;;;14.66;100.00;101887.28;5110274;28;19924;-51
2023/06/23 00:31:49;;;;;;;;;;;;;;;14.63;100.00;101889.81;5110985;28;19951;-49
2023/06/23 00:34:14;;;;;;;;;;;;;;;14.65;100.00;101890.72;5107712;28;20309;-49
2023/06/23 00:36:40;;;;;;;;;;;;;;;14.63;100.00;101895.84;5107116;28;19916;-47
2023/06/23 00:39:05;;;;;;;;;;;;;;;14.61;100.00;101894.91;5106763;28;20293;-48
2023/06/23 00:41:30;;;;;;;;;;;;;;;14.60;100.00;101898.34;5103066;28;20392;-48
2023/06/23 00:43:59;;;;;;;;;;;;;;;14.60;100.00;101903.53;5106172;28;19916;-51
2023/06/23 00:46:25;;;;;;;;;;;;;;;14.61;100.00;101909.56;5110068;28;19916;-50
2023/06/23 00:48:51;;;;;;;;;;;;;;;14.61;100.00;101906.97;5092159;28;19922;-49
2023/06/23 00:51:16;;;;;;;;;;;;;;;14.61;100.00;101910.44;5072323;28;19912;-49
2023/06/23 00:53:45;;;;;;;;;;;;;;;14.62;100.00;101913.91;5109728;28;19911;-46
2023/06/23 00:56:10;;;;;;;;;;;;;;;14.60;100.00;101919.03;5105424;28;19916;-44
2023/06/23 00:58:37;;;;;;;;;;;;;;;14.59;100.00;101922.47;5107257;28;19927;-51
2023/06/23 01:01:03;;;;;;;;;;;;;;;14.59;100.00;101932.84;5107656;28;19922;-50
2023/06/23 01:03:28;;;;;;;;;;;;;;;14.59;100.00;101942.31;5104931;28;19916;-50
2023/06/23 01:05:55;;;;;;;;;;;;;;;14.60;100.00;101954.41;5092394;28;19930;-51
2023/06/23 01:08:30;;;;;;;;;;;;;;;14.61;100.00;101956.16;5095444;28;20007;-50
2023/06/23 01:10:56;;;;;;;;;;;;;;;14.60;100.00;101954.41;5093960;28;20320;-47
2023/06/23 01:13:30;;;;;;;;;;;;;;;14.61;100.00;101954.44;5098830;28;20298;-50
2023/06/23 01:16:01;;;;;;;;;;;;;;;14.61;100.00;101957.03;5097868;28;20018;-51
2023/06/23 01:18:44;;;;;;;;;;;;;;;14.61;100.00;101950.97;5105060;28;19919;-51
2023/06/23 01:21:10;;;;;;;;;;;;;;;14.63;100.00;101949.34;5101642;28;19954;-51
2023/06/23 01:23:56;;;;;;;;;;;;;;;14.62;100.00;101947.56;5105424;28;19915;-47
2023/06/23 01:26:24;;;;;;;;;;;;;;;14.62;100.00;101948.47;5100902;28;20384;-48
2023/06/23 01:28:50;;;;;;;;;;;;;;;14.62;100.00;101951.06;5100803;28;19912;-50
2023/06/23 01:31:18;;;;;;;;;;;;;;;14.63;100.00;101959.69;5105225;28;19920;-50
2023/06/23 01:33:56;;;;;;;;;;;;;;;14.61;100.00;101961.34;5107328;28;19915;-47
2023/06/23 01:36:25;;;;;;;;;;;;;;;14.60;100.00;101965.63;5104546;28;20350;-50
2023/06/23 01:38:52;;;;;;;;;;;;;;;14.58;100.00;101971.63;5108177;28;20300;-50
2023/06/23 01:41:20;;;;;;;;;;;;;;;14.55;100.00;101974.09;5103343;28;19916;-50
2023/06/23 01:43:47;;;;;;;;;;;;;;;14.52;100.00;101966.25;5106905;28;19916;-48
2023/06/23 01:46:15;;;;;;;;;;;;;;;14.51;100.00;101964.50;5102156;28;20378;-50
2023/06/23 01:48:42;;;;;;;;;;;;;;;14.48;100.00;101962.69;5104921;28;19912;-47
2023/06/23 01:51:09;;;;;;;;;;;;;;;14.48;100.00;101966.16;5100582;28;19912;-47
2023/06/23 01:53:34;;;;;;;;;;;;;;;14.47;100.00;101969.59;5105815;28;19919;-50
2023/06/23 01:56:02;;;;;;;;;;;;;;;14.47;100.00;101979.06;5109893;28;19912;-48
2023/06/23 01:58:28;;;;;;;;;;;;;;;14.47;100.00;101981.66;5108698;28;19961;-48
2023/06/23 02:00:53;;;;;;;;;;;;;;;14.48;100.00;101984.28;5108857;28;19926;-47
2023/06/23 02:03:19;;;;;;;;;;;;;;;14.46;100.00;101988.53;5099090;28;19916;-47
2023/06/23 02:05:46;;;;;;;;;;;;;;;14.45;100.00;101986.75;5099951;28;20392;-48
2023/06/23 02:08:12;;;;;;;;;;;;;;;14.46;100.00;101993.72;5076450;28;19916;-48
2023/06/23 02:10:39;;;;;;;;;;;;;;;14.44;100.00;101994.47;5101836;28;20402;-49
2023/06/23 02:13:05;;;;;;;;;;;;;;;14.42;100.00;101994.41;5096259;28;19926;-47
2023/06/23 02:15:31;;;;;;;;;;;;;;;14.39;100.00;101996.91;5097624;28;19978;-50
2023/06/23 02:17:58;;;;;;;;;;;;;;;14.37;100.00;102011.50;5102207;28;19919;-49
2023/06/23 02:20:24;;;;;;;;;;;;;;;14.31;100.00;102011.31;5104805;28;20443;-48
2023/06/23 02:22:50;;;;;;;;;;;;;;;14.28;100.00;102010.34;5106380;28;20333;-50
2023/06/23 02:25:16;;;;;;;;;;;;;;;14.25;100.00;102013.69;5112075;28;19916;-49
2023/06/23 02:27:42;;;;;;;;;;;;;;;14.23;100.00;102013.66;5102840;28;19919;-50
2023/06/23 02:30:08;;;;;;;;;;;;;;;14.21;100.00;102017.06;5106815;28;19920;-47
2023/06/23 02:32:33;;;;;;;;;;;;;;;14.21;100.00;102027.41;5102027;28;20424;-49
2023/06/23 02:34:58;;;;;;;;;;;;;;;14.19;100.00;102039.38;5104632;28;19923;-50
2023/06/23 02:37:24;;;;;;;;;;;;;;;14.18;100.00;102038.50;5100759;28;20026;-51
2023/06/23 02:39:53;;;;;;;;;;;;;;;14.15;100.00;102046.19;5108561;28;19923;-47
2023/06/23 02:42:20;;;;;;;;;;;;;;;14.16;100.00;102047.06;5099459;28;19953;-48
2023/06/23 02:44:53;;;;;;;;;;;;;;;14.13;100.00;102049.53;5108387;28;19935;-47
2023/06/23 02:47:19;;;;;;;;;;;;;;;14.11;100.00;102038.28;5112005;28;19912;-48
2023/06/23 02:49:45;;;;;;;;;;;;;;;14.10;100.00;102041.69;5112910;28;19919;-51
2023/06/23 02:52:11;;;;;;;;;;;;;;;14.09;100.00;102058.91;5112294;28;20278;-50
2023/06/23 02:54:39;;;;;;;;;;;;;;;14.08;100.00;102062.34;5112546;28;19911;-44
2023/06/23 02:57:07;;;;;;;;;;;;;;;14.07;100.00;102057.97;5112495;28;19915;-44
2023/06/23 02:59:34;;;;;;;;;;;;;;;14.06;100.00;102068.28;5102423;28;20414;-43
2023/06/23 03:02:00;;;;;;;;;;;;;;;14.05;100.00;102067.41;5102348;28;19912;-41
2023/06/23 03:04:25;;;;;;;;;;;;;;;14.04;100.00;102069.94;5101493;28;19923;-42
2023/06/23 03:06:51;;;;;;;;;;;;;;;14.01;100.00;102067.22;5098698;28;19912;-42
2023/06/23 03:09:17;;;;;;;;;;;;;;;13.99;100.00;102058.56;5100289;28;20335;-42
2023/06/23 03:11:42;;;;;;;;;;;;;;;13.99;100.00;102067.19;5109720;28;19919;-51
2023/06/23 03:14:07;;;;;;;;;;;;;;;13.97;100.00;102068.84;5111909;28;19920;-48
2023/06/23 03:16:38;;;;;;;;;;;;;;;13.98;100.00;102062.84;5111621;28;19923;-49
2023/06/23 03:19:16;;;;;;;;;;;;;;;14.00;100.00;102066.34;5108800;28;19970;-46
2023/06/23 03:21:43;;;;;;;;;;;;;;;14.04;100.00;102065.63;5102919;28;19926;-47
2023/06/23 03:24:10;;;;;;;;;;;;;;;14.03;100.00;102069.06;5104471;28;19912;-46
2023/06/23 03:26:39;;;;;;;;;;;;;;;14.03;100.00;102073.34;5091318;28;19963;-48
2023/06/23 03:29:06;;;;;;;;;;;;;;;14.02;100.00;102088.00;5092280;28;19911;-47
2023/06/23 03:31:34;;;;;;;;;;;;;;;14.01;100.00;102087.91;5100106;28;19911;-49
2023/06/23 03:34:00;;;;;;;;;;;;;;;14.00;100.00;102088.75;5102493;28;19922;-49
2023/06/23 03:36:26;;;;;;;;;;;;;;;14.02;100.00;102081.94;5100244;28;19916;-50
2023/06/23 03:38:59;;;;;;;;;;;;;;;14.01;100.00;102081.03;5101958;28;19924;-49
2023/06/23 03:41:27;;;;;;;;;;;;;;;14.03;100.00;102088.88;5098008;28;19916;-49
2023/06/23 03:43:54;;;;;;;;;;;;;;;14.04;100.00;102086.34;5102212;28;20346;-51
2023/06/23 03:46:26;;;;;;;;;;;;;;;14.04;100.00;102090.63;5099376;28;19935;-51
2023/06/23 03:48:54;;;;;;;;;;;;;;;14.06;100.00;102084.66;5099459;28;20319;-48
2023/06/23 03:51:21;;;;;;;;;;;;;;;14.09;100.00;102078.72;5094255;28;20279;-50
2023/06/23 03:53:48;;;;;;;;;;;;;;;14.10;100.00;102078.78;5098085;28;19951;-48
2023/06/23 03:56:15;;;;;;;;;;;;;;;14.11;100.00;102080.53;5095049;28;19957;-48
2023/06/23 03:58:42;;;;;;;;;;;;;;;14.15;100.00;102084.09;5095796;28;19935;-49
2023/06/23 04:01:07;;;;;;;;;;;;;;;14.18;100.00;102097.13;5094979;28;19912;-50
2023/06/23 04:03:35;;;;;;;;;;;;;;;14.20;100.00;102105.84;5095676;28;19927;-52
2023/06/23 04:06:04;;;;;;;;;;;;;;;14.22;100.00;102106.75;5099053;28;19912;-48
2023/06/23 04:08:30;;;;;;;;;;;;;;;14.25;100.00;102112.00;5094189;28;19912;-50
2023/06/23 04:10:57;;;;;;;;;;;;;;;14.28;100.00;102121.59;5099184;28;19954;-52
2023/06/23 04:13:23;;;;;;;;;;;;;;;14.34;100.00;102122.69;5091360;28;19912;-49
2023/06/23 04:15:50;;;;;;;;;;;;;;;14.37;100.00;102114.13;5100851;28;20350;-51
2023/06/23 04:18:17;;;;;;;;;;;;;;;14.39;100.00;102115.06;5077507;28;19924;-51
2023/06/23 04:20:44;;;;;;;;;;;;;;;14.45;100.00;102123.03;5099698;28;19977;-51
2023/06/23 04:23:10;;;;;;;;;;;;;;;14.68;100.00;102122.09;5089583;28;19920;-48
2023/06/23 04:25:36;;;;;;;;;;;;;;;15.05;100.00;102130.97;5090176;28;20355;-49
2023/06/23 04:28:04;;;;;;;;;;;;;;;15.39;100.00;102119.00;5087707;28;19916;-49
2023/06/23 04:30:31;;;;;;;;;;;;;;;15.73;100.00;102128.63;5089979;28;19912;-49
2023/06/23 04:32:56;;;;;;;;;;;;;;;16.04;100.00;102138.09;5091850;28;19912;-47
2023/06/23 04:35:21;;;;;;;;;;;;;;;16.36;100.00;102133.69;5089556;28;19928;-46
2023/06/23 04:37:48;;;;;;;;;;;;;;;16.60;100.00;102133.41;5090238;28;19977;-47
2023/06/23 04:40:29;;;;;;;;;;;;;;;16.79;100.00;102130.41;5089533;28;19927;-47
2023/06/23 04:43:01;;;;;;;;;;;;;;;16.98;100.00;102141.22;5088729;28;19923;-48
2023/06/23 04:45:27;;;;;;;;;;;;;;;17.15;100.00;102142.47;5083607;28;19919;-48
2023/06/23 04:47:57;;;;;;;;;;;;;;;17.38;100.00;102154.25;5090084;28;19916;-51
2023/06/23 04:50:25;;;;;;;;;;;;;;;17.55;100.00;102151.09;5088986;28;19930;-47
2023/06/23 04:52:53;;;;;;;;;;;;;;;17.69;100.00;102149.63;5084113;28;20014;-51
2023/06/23 04:55:19;;;;;;;;;;;;;;;17.84;100.00;102162.13;5089690;28;19919;-50
2023/06/23 04:57:46;;;;;;;;;;;;;;;18.02;100.00;102152.03;5090000;28;20085;-50
2023/06/23 05:00:15;;;;;;;;;;;;;;;18.31;100.00;102160.34;5089692;28;19920;-50
2023/06/23 05:02:40;;;;;;;;;;;;;;;18.54;100.00;102158.13;5087193;28;19916;-47
2023/06/23 05:05:08;;;;;;;;;;;;;;;18.61;100.00;102165.16;5084079;28;19916;-51
2023/06/23 05:07:34;;;;;;;;;;;;;;;18.68;100.00;102168.78;5094275;28;19916;-48
2023/06/23 05:10:00;;;;;;;;;;;;;;;18.82;100.00;102172.47;5090078;28;20095;-48
2023/06/23 05:12:26;;;;;;;;;;;;;;;18.94;100.00;102172.66;5089632;28;19944;-50
2023/06/23 05:14:53;;;;;;;;;;;;;;;19.04;100.00;102186.69;5089767;28;19965;-51
2023/06/23 05:17:20;;;;;;;;;;;;;;;19.12;100.00;102186.81;5092923;28;19912;-49
2023/06/23 05:19:46;;;;;;;;;;;;;;;19.18;100.00;102184.28;5088227;28;19920;-46
2023/06/23 05:22:16;;;;;;;;;;;;;;;19.33;100.00;102181.00;5078378;28;19933;-48
2023/06/23 05:24:44;;;;;;;;;;;;;;;19.51;100.00;102186.44;5084314;28;19934;-47
2023/06/23 05:27:10;;;;;;;;;;;;;;;19.62;100.00;102184.88;5089946;28;19919;-50
2023/06/23 05:29:37;;;;;;;;;;;;;;;19.59;100.00;102184.81;5089978;28;20015;-50
2023/06/23 05:32:04;;;;;;;;;;;;;;;19.48;100.00;102195.13;5080385;28;19912;-46
2023/06/23 05:34:31;;;;;;;;;;;;;;;19.42;100.00;102196.78;5092081;28;19969;-48
2023/06/23 05:36:59;;;;;;;;;;;;;;;19.44;100.00;102195.06;5091774;28;20298;-50
2023/06/23 05:39:27;;;;;;;;;;;;;;;19.47;100.00;102195.94;5091318;28;19928;-50
2023/06/23 05:41:52;;;;;;;;;;;;;;;19.53;100.00;102202.97;5087608;28;20397;-50
2023/06/23 05:44:17;;;;;;;;;;;;;;;19.54;100.00;102207.38;5093371;28;19916;-46
2023/06/23 05:46:44;;;;;;;;;;;;;;;19.61;100.00;102203.13;5085635;28;19916;-49
2023/06/23 05:49:12;;;;;;;;;;;;;;;19.55;100.00;102209.13;5081729;28;20416;-47
2023/06/23 05:51:39;;;;;;;;;;;;;;;19.43;100.00;102217.66;5095751;28;19916;-49
2023/06/23 05:54:08;;;;;;;;;;;;;;;19.31;100.00;102214.00;5100123;28;20294;-49
2023/06/23 05:56:42;;;;;;;;;;;;;;;19.22;100.00;102215.63;5095707;28;19923;-48
2023/06/23 05:59:10;;;;;;;;;;;;;;;19.22;100.00;102212.13;5099565;28;19916;-47
2023/06/23 06:01:39;;;;;;;;;;;;;;;19.10;100.00;102219.78;5090010;28;19920;-51
2023/06/23 06:04:07;;;;;;;;;;;;;;;18.77;100.00;102218.44;5087665;28;20377;-46
2023/06/23 06:06:35;;;;;;;;;;;;;;;18.49;100.00;102217.94;5093349;28;19915;-50
2023/06/23 06:09:01;;;;;;;;;;;;;;;18.37;100.00;102225.53;5090624;28;19922;-50
2023/06/23 06:11:28;;;;;;;;;;;;;;;18.36;100.00;102226.41;5097471;28;19912;-50
2023/06/23 06:13:55;;;;;;;;;;;;;;;18.38;100.00;102224.72;5098628;28;19965;-48
2023/06/23 06:16:21;;;;;;;;;;;;;;;18.40;100.00;102235.16;5099813;28;20331;-47
2023/06/23 06:18:48;;;;;;;;;;;;;;;18.46;100.00;102236.13;5097283;28;19924;-50
2023/06/23 06:21:15;;;;;;;;;;;;;;;18.62;100.00;102239.84;5110101;28;19924;-47
2023/06/23 06:23:41;;;;;;;;;;;;;;;18.92;100.00;102246.44;5110635;28;19911;-48
2023/06/23 06:26:07;;;;;;;;;;;;;;;19.36;100.00;102243.66;5099499;28;19942;-50
2023/06/23 06:28:33;;;;;;;;;;;;;;;19.72;100.00;102244.16;5090901;28;19965;-49
2023/06/23 06:30:59;;;;;;;;;;;;;;;19.94;100.00;102239.19;5101437;28;20282;-50
2023/06/23 06:33:25;;;;;;;;;;;;;;;20.08;100.00;102240.19;5085403;28;20375;-46
2023/06/23 06:35:51;;;;;;;;;;;;;;;20.39;100.00;102241.41;5101377;28;20259;-47
2023/06/23 06:38:17;;;;;;;;;;;;;;;20.62;100.00;102246.84;5104958;28;19916;-47
2023/06/23 06:40:44;;;;;;;;;;;;;;;20.91;100.00;102251.44;5109955;28;19923;-46
2023/06/23 06:43:09;;;;;;;;;;;;;;;21.08;100.00;102252.44;5098830;28;19964;-48
2023/06/23 06:45:34;;;;;;;;;;;;;;;21.18;100.00;102253.38;5096332;28;20022;-50
2023/06/23 06:48:01;;;;;;;;;;;;;;;21.23;100.00;102265.59;5093396;28;20359;-51
2023/06/23 06:50:26;;;;;;;;;;;;;;;21.24;100.00;102269.13;5103277;28;19923;-48
2023/06/23 06:52:52;;;;;;;;;;;;;;;21.35;100.00;102270.94;5096077;28;19916;-51
2023/06/23 06:55:19;;;;;;;;;;;;;;;21.43;100.00;102276.25;5091931;28;20001;-48
2023/06/23 06:57:45;;;;;;;;;;;;;;;21.32;100.00;102273.56;5089239;28;19955;-47
2023/06/23 07:00:11;;;;;;;;;;;;;;;21.14;100.00;102281.25;5079972;28;20320;-47
2023/06/23 07:02:37;;;;;;;;;;;;;;;21.10;100.00;102271.63;5080968;28;19999;-49
2023/06/23 07:05:04;;;;;;;;;;;;;;;21.11;100.00;102284.72;5092292;28;20054;-51
2023/06/23 07:07:30;;;;;;;;;;;;;;;21.24;100.00;102287.44;5095623;28;19912;-44
2023/06/23 07:09:55;;;;;;;;;;;;;;;21.60;100.00;102289.41;5096790;28;19918;-44
2023/06/23 07:12:22;;;;;;;;;;;;;;;21.93;98.93;102294.78;5099353;28;19920;-43
2023/06/23 07:14:47;;;;;;;;;;;;;;;22.11;96.03;102287.91;5094923;28;19977;-43
2023/06/23 07:17:12;;;;;;;;;;;;;;;22.23;96.62;102287.94;5098578;28;19969;-45
2023/06/23 07:19:39;;;;;;;;;;;;;;;22.35;94.44;102303.69;5088683;28;19936;-43
2023/06/23 07:22:04;;;;;;;;;;;;;;;22.41;94.83;102289.72;5065070;28;19930;-43
2023/06/23 07:24:29;;;;;;;;;;;;;;;22.59;97.54;102297.59;5091651;28;19986;-43
2023/06/23 07:26:54;;;;;;;;;;;;;;;22.91;99.24;102305.50;5090963;28;20404;-45
2023/06/23 07:29:20;;;;;;;;;;;;;;;22.99;93.40;102314.28;5091615;28;20386;-47
2023/06/23 07:31:45;;;;;;;;;;;;;;;22.98;88.27;102312.50;5083172;28;19924;-48
2023/06/23 07:34:11;;;;;;;;;;;;;;;22.77;91.03;102304.63;5077087;28;19977;-47
2023/06/23 07:36:36;;;;;;;;;;;;;;;22.65;93.57;102305.47;5062338;28;19916;-47
2023/06/23 07:39:02;;;;;;;;;;;;;;;22.63;89.56;102308.94;5061922;28;20211;-49
2023/06/23 07:41:27;;;;;;;;;;;;;;;22.66;86.23;102311.59;5084856;28;20379;-47
2023/06/23 07:43:55;;;;;;;;;;;;;;;22.55;91.59;102310.69;5091201;28;19919;-50
2023/06/23 07:46:20;;;;;;;;;;;;;;;22.73;91.06;102321.22;5090586;28;20046;-48
2023/06/23 07:48:45;;;;;;;;;;;;;;;22.91;92.74;102313.38;5091276;28;19979;-47
2023/06/23 07:51:10;;;;;;;;;;;;;;;22.99;90.75;102314.28;5089723;28;19924;-47
2023/06/23 07:53:36;;;;;;;;;;;;;;;22.77;88.56;102312.47;5060022;28;19924;-49
2023/06/23 07:56:01;;;;;;;;;;;;;;;22.74;90.02;102315.09;5085642;28;20390;-45
2023/06/23 07:58:27;;;;;;;;;;;;;;;;;;5088901;28;20391;-49
2023/06/23 08:00:53;;;;;;;;;;;;;;;22.96;92.52;102316.00;5088482;28;19963;-48
2023/06/23 08:03:18;;;;;;;;;;;;;;;23.09;91.19;102314.25;5087983;28;20393;-47
2023/06/23 08:05:43;;;;;;;;;;;;;;;23.15;86.55;102315.13;5087447;28;19916;-47
2023/06/23 08:08:09;;;;;;;;;;;;;;;23.05;85.66;102317.75;5085968;28;19927;-48
2023/06/23 08:10:35;;;;;;;;;;;;;;;23.14;88.17;102316.00;5087210;28;19960;-51
2023/06/23 08:13:00;;;;;;;;;;;;;;;23.38;87.96;102312.47;5072264;28;19917;-48
2023/06/23 08:15:25;;;;;;;;;;;;;;;23.67;87.27;102314.19;5073612;28;20241;-49
2023/06/23 08:17:51;;;;;;;;;;;;;;;23.91;84.12;102316.72;5077964;28;19920;-49
2023/06/23 08:20:17;;;;;;;;;;;;;;;24.14;78.39;102318.34;5081069;28;19970;-48
2023/06/23 08:22:42;;;;;;;;;;;;;;;24.21;78.86;102317.44;5101560;28;19952;-49
2023/06/23 08:25:08;;;;;;;;;;;;;;;24.16;81.88;102324.47;5099264;27;20193;-51
2023/06/23 08:27:33;;;;;;;;;;;;;;;24.24;82.15;102323.53;5110082;28;20421;-51
2023/06/23 08:29:58;;;;;;;;;;;;;;;24.40;78.03;102320.88;5110179;28;19989;-51
2023/06/23 08:32:24;;;;;;;;;;;;;;;24.44;80.05;102322.56;5109855;28;20011;-51
2023/06/23 08:34:49;;;;;;;;;;;;;;;24.46;80.82;102319.06;5109006;28;20263;-51
2023/06/23 08:37:14;;;;;;;;;;;;;;;24.57;79.16;102326.88;5106343;28;19931;-49
2023/06/23 08:39:40;;;;;;;;;;;;;;;24.62;78.43;102327.72;5106729;28;20394;-49
2023/06/23 08:42:05;;;;;;;;;;;;;;;24.76;80.33;102327.63;5106311;28;19920;-51
2023/06/23 08:44:32;;;;;;;;;;;;;;;24.93;73.29;102335.38;5105218;28;19992;-50
2023/06/23 08:46:58;;;;;;;;;;;;;;;24.87;71.85;102336.28;5105282;28;19911;-49
2023/06/23 08:49:24;;;;;;;;;;;;;;;24.68;70.71;102343.44;5103650;28;19916;-51
2023/06/23 08:51:50;;;;;;;;;;;;;;;24.70;73.28;102348.72;5102713;28;19968;-51
2023/06/23 08:54:15;;;;;;;;;;;;;;;24.78;74.29;102352.16;5101302;28;19958;-43
2023/06/23 08:56:42;;;;;;;;;;;;;;;24.75;75.28;102346.91;5092106;28;19912;-46
2023/06/23 08:59:08;;;;;;;;;;;;;;;24.75;74.13;102346.91;5109119;28;19916;-45
2023/06/23 09:01:33;;;;;;;;;;;;;;;24.82;73.13;102359.16;5104398;28;19922;-44
2023/06/23 09:04:00;;;;;;;;;;;;;;;24.98;76.64;102359.88;5107500;28;19912;-44
2023/06/23 09:06:25;;;;;;;;;;;;;;;25.12;68.78;102358.06;5103690;28;20003;-45
2023/06/23 09:08:51;;;;;;;;;;;;;;;25.01;68.92;102360.75;5105020;28;20342;-46
2023/06/23 09:11:16;;;;;;;;;;;;;;;24.92;64.62;102371.34;5106019;28;19915;-52
2023/06/23 09:13:44;;;;;;;;;;;;;;;24.54;68.89;102368.97;5102123;28;20319;-50
2023/06/23 09:16:09;;;;;;;;;;;;;;;24.28;71.41;102364.72;5105401;28;19937;-52
2023/06/23 09:18:40;;;;;;;;;;;;;;;24.18;72.38;102363.00;5105884;28;19919;-51
2023/06/23 09:21:06;;;;;;;;;;;;;;;24.22;69.93;102369.13;5098956;28;19920;-52
2023/06/23 09:23:31;;;;;;;;;;;;;;;24.33;70.30;102372.56;5094429;28;19912;-51
2023/06/23 09:25:56;;;;;;;;;;;;;;;24.34;67.45;102366.47;5092175;28;19916;-52
2023/06/23 09:28:23;;;;;;;;;;;;;;;24.29;70.87;102371.72;5093115;28;20374;-44
2023/06/23 09:30:49;;;;;;;;;;;;;;;24.29;66.80;102379.59;5102998;28;19980;-43
2023/06/23 09:33:16;;;;;;;;;;;;;;;24.24;65.33;102384.00;5097534;28;20421;-47
2023/06/23 09:35:46;;;;;;;;;;;;;;;24.17;67.60;102377.03;5105215;28;19916;-44
2023/06/23 09:38:12;;;;;;;;;;;;;;;24.27;68.96;102384.00;5105378;28;20374;-44
2023/06/23 09:40:37;;;;;;;;;;;;;;;24.44;69.09;102381.28;5107959;28;19927;-45
2023/06/23 09:43:02;;;;;;;;;;;;;;;24.55;65.73;102387.38;5105160;28;19920;-44
2023/06/23 09:45:28;;;;;;;;;;;;;;;24.67;67.33;102388.19;5107036;28;19923;-43
2023/06/23 09:47:53;;;;;;;;;;;;;;;24.60;64.34;102393.47;5107416;28;19916;-43
2023/06/23 09:50:21;;;;;;;;;;;;;;;24.57;66.29;102395.25;5075776;28;19920;-45
2023/06/23 09:52:46;;;;;;;;;;;;;;;24.67;67.85;102389.06;5107032;28;19916;-45
2023/06/23 09:55:12;;;;;;;;;;;;;;;24.86;63.65;102397.69;5105303;28;19923;-46
2023/06/23 09:57:37;;;;;;;;;;;;;;;25.04;65.64;102397.56;5108489;28;19918;-43
2023/06/23 10:00:03;;;;;;;;;;;;;;;25.05;65.03;102394.06;5090672;28;19977;-44
2023/06/23 10:02:29;;;;;;;;;;;;;;;24.99;63.58;102394.06;5084363;28;20003;-46
2023/06/23 10:04:59;;;;;;;;;;;;;;;25.05;64.32;102394.06;5102958;28;19947;-43
2023/06/23 10:07:25;;;;;;;;;;;;;;;25.14;61.76;102394.00;5107196;28;20346;-43
2023/06/23 10:09:52;;;;;;;;;;;;;;;25.18;60.75;102384.34;5107864;28;19915;-44
2023/06/23 10:12:22;;;;;;;;;;;;;;;25.30;64.96;102385.94;5088354;28;20311;-50
2023/06/23 10:14:47;;;;;;;;;;;;;;;25.43;62.40;102379.72;5100286;28;20294;-52
2023/06/23 10:17:13;;;;;;;;;;;;;;;25.44;61.20;102386.72;5105161;28;19920;-43
2023/06/23 10:19:38;;;;;;;;;;;;;;;25.53;62.40;102383.97;5100490;28;20022;-43
2023/06/23 10:22:04;;;;;;;;;;;;;;;25.65;59.04;102383.84;5094422;28;20302;-46
2023/06/23 10:24:31;;;;;;;;;;;;;;;25.68;61.49;102386.47;5093804;28;19943;-45
2023/06/23 10:26:58;;;;;;;;;;;;;;;25.67;59.85;102386.50;5081593;28;19923;-44
2023/06/23 10:29:24;;;;;;;;;;;;;;;25.45;60.47;102391.09;5109846;28;19912;-45
2023/06/23 10:31:51;;;;;;;;;;;;;;;25.34;62.34;102390.31;5104214;28;19919;-45
2023/06/23 10:34:17;;;;;;;;;;;;;;;25.42;61.61;102383.22;5112358;28;19955;-43
2023/06/23 10:36:46;;;;;;;;;;;;;;;25.53;60.45;102380.47;5113059;28;19998;-42
2023/06/23 10:39:12;;;;;;;;;;;;;;;25.56;61.78;102381.34;5112284;28;19920;-43
2023/06/23 10:41:40;;;;;;;;;;;;;;;25.49;60.31;102390.19;5112760;28;19916;-44
2023/06/23 10:44:05;;;;;;;;;;;;;;;25.53;60.84;102391.00;5087389;28;20056;-47
2023/06/23 10:46:31;;;;;;;;;;;;;;;25.61;60.05;102397.97;5110795;28;20006;-45
2023/06/23 10:48:57;;;;;;;;;;;;;;;25.65;57.00;102398.78;5078509;28;19912;-44
2023/06/23 10:51:23;;;;;;;;;;;;;;;25.61;59.26;102397.97;5098755;28;19916;-45
2023/06/23 10:53:58;;;;;;;;;;;;;;;25.65;58.30;102404.94;5098948;28;19911;-42
2023/06/23 10:56:37;;;;;;;;;;;;;;;25.78;57.33;102397.78;5096222;28;19916;-46
2023/06/23 10:59:20;;;;;;;;;;;;;;;25.91;56.03;102393.28;5109873;28;19951;-46
2023/06/23 11:02:00;;;;;;;;;;;;;;;26.06;58.51;102395.72;5101851;28;20003;-44
2023/06/23 11:04:30;;;;;;;;;;;;;;;26.24;58.79;102394.63;5101451;28;19923;-43
2023/06/23 11:07:07;;;;;;;;;;;;;;;26.36;56.51;102402.38;5106519;28;19924;-43
2023/06/23 11:09:39;;;;;;;;;;;;;;;26.52;56.72;102399.56;5102275;28;19916;-43
2023/06/23 11:12:24;;;;;;;;;;;;;;;26.65;50.79;102404.66;5100980;28;20381;-43
2023/06/23 11:14:49;;;;;;;;;;;;;;;26.92;54.24;102403.34;5112162;28;20015;-44
2023/06/23 11:17:14;;;;;;;;;;;;;;;26.89;52.65;102413.97;5102580;28;20378;-45
2023/06/23 11:19:40;;;;;;;;;;;;;;;26.67;54.83;102409.91;5107883;28;19997;-48
2023/06/23 11:22:09;;;;;;;;;;;;;;;26.64;54.14;102399.41;5106577;28;19967;-42
2023/06/23 11:24:34;;;;;;;;;;;;;;;26.76;55.84;102403.63;5104898;28;19919;-43
2023/06/23 11:27:00;;;;;;;;;;;;;;;26.74;51.65;102409.78;5101440;28;19973;-45
2023/06/23 11:29:26;;;;;;;;;;;;;;;26.54;49.58;102403.06;5101973;28;20563;-47
2023/06/23 11:32:01;;;;;;;;;;;;;;;26.43;52.00;102404.06;5086786;28;20006;-45
2023/06/23 11:34:26;;;;;;;;;;;;;;;26.29;50.72;102413.03;5102018;28;19965;-43
2023/06/23 11:36:52;;;;;;;;;;;;;;;26.16;51.63;102405.28;5101510;28;19920;-44
2023/06/23 11:39:18;;;;;;;;;;;;;;;26.19;50.95;102404.34;5090487;28;19924;-42
2023/06/23 11:41:43;;;;;;;;;;;;;;;26.41;51.02;102410.25;5092813;28;19916;-43
2023/06/23 11:44:08;;;;;;;;;;;;;;;26.64;50.20;102402.91;5092058;28;19912;-43
2023/06/23 11:46:34;;;;;;;;;;;;;;;26.65;49.35;102399.38;5101404;28;19943;-44
2023/06/23 11:49:12;;;;;;;;;;;;;;;26.52;49.61;102407.50;5070866;28;20010;-42
2023/06/23 11:51:37;;;;;;;;;;;;;;;26.31;53.36;102409.47;5097902;28;19912;-44
2023/06/23 11:54:05;;;;;;;;;;;;;;;26.25;52.12;102408.69;5100012;28;19919;-44
2023/06/23 11:56:32;;;;;;;;;;;;;;;26.27;49.02;102410.41;5098836;28;19919;-43
2023/06/23 11:59:00;;;;;;;;;;;;;;;26.28;50.49;102411.28;5090114;28;20007;-46
2023/06/23 12:01:26;;;;;;;;;;;;;;;26.43;54.21;102406.69;5093869;28;20300;-43
2023/06/23 12:03:52;;;;;;;;;;;;;;;26.70;52.55;102400.19;5097153;28;19951;-44
2023/06/23 12:06:19;;;;;;;;;;;;;;;26.82;45.62;102414.09;5093368;28;19999;-43
2023/06/23 12:08:44;;;;;;;;;;;;;;;26.69;48.14;102405.47;5075806;28;19912;-44
2023/06/23 12:11:10;;;;;;;;;;;;;;;26.77;47.70;102402.72;5073849;28;19939;-43
2023/06/23 12:13:38;;;;;;;;;;;;;;;26.88;45.49;102404.31;5097497;28;19928;-53
2023/06/23 12:16:04;;;;;;;;;;;;;;;26.90;45.63;102402.50;5100715;28;19919;-51
2023/06/23 12:18:30;;;;;;;;;;;;;;;26.82;47.07;102406.16;5094222;28;19923;-52
2023/06/23 12:20:55;;;;;;;;;;;;;;;26.84;47.82;102405.25;5090233;28;19928;-50
2023/06/23 12:23:20;;;;;;;;;;;;;;;26.78;48.21;102404.47;5083833;28;19998;-52
2023/06/23 12:25:52;;;;;;;;;;;;;;;26.68;50.47;102398.44;5101479;28;20003;-49
2023/06/23 12:28:19;;;;;;;;;;;;;;;26.60;48.76;102410.88;5080428;28;19912;-49